Terminal Aerodrome Forecast
Issued by NWS

Home | Current Version | Previous Version | Text Only | Print | Product List | Glossary On
Versions: 1 2 3 4 5 6 7 8 9 10 11 12 13 14 15 16 17 18 19
000
FTUS41 KALY 310500 RRA
TAFPSF
TAF
KPSF 310548Z 3106/0106 21005KT P6SM OVC015
      TEMPO 3108/3112 5SM BR OVC009
     FM311400 22007KT P6SM OVC025
     FM311700 22007KT P6SM VCSH OVC035
     FM312000 22007KT 5SM -SHRA BR OVC030 PROB30 3121/0101 3SM TSRA
      OVC020CB
     FM010200 20005KT 3SM BR VCSH OVC020=

USA.gov is the U.S. government's official web portal to all federal, state and local government web resources and services.